createdAt,value
2018-07-02T00:00:48.064Z,18.90
2018-07-02T00:03:16.307Z,18.80
2018-07-02T00:05:55.851Z,18.80
2018-07-02T00:08:24.119Z,18.70
2018-07-02T00:10:52.369Z,18.70
2018-07-02T00:13:20.626Z,18.70
2018-07-02T00:15:48.816Z,18.60
2018-07-02T00:18:16.990Z,18.60
2018-07-02T00:20:45.266Z,18.60
2018-07-02T00:23:13.502Z,18.50
2018-07-02T00:25:41.879Z,18.50
2018-07-02T00:28:10.115Z,18.50
2018-07-02T00:30:38.364Z,18.40
2018-07-02T00:33:06.631Z,18.40
2018-07-02T00:35:34.839Z,18.40
2018-07-02T00:38:03.100Z,18.40
2018-07-02T00:40:31.333Z,18.30
2018-07-02T00:42:59.580Z,18.30
2018-07-02T00:45:27.798Z,18.20
2018-07-02T00:47:56.002Z,18.20
2018-07-02T00:50:24.248Z,18.10
2018-07-02T00:52:52.490Z,18.10
2018-07-02T00:55:20.731Z,18.10
2018-07-02T00:57:48.992Z,18.10
2018-07-02T01:00:17.508Z,18.10
2018-07-02T01:02:45.768Z,18.00
2018-07-02T01:05:14.105Z,18.00
2018-07-02T01:07:43.685Z,18.00
2018-07-02T01:10:11.952Z,17.90
2018-07-02T01:12:40.160Z,17.90
2018-07-02T01:15:08.412Z,17.90
2018-07-02T01:17:36.928Z,17.90
2018-07-02T01:20:05.096Z,17.80
2018-07-02T01:22:33.377Z,17.80
2018-07-02T01:25:01.616Z,17.80
2018-07-02T01:27:33.929Z,17.80
2018-07-02T01:30:03.321Z,17.80
2018-07-02T01:34:59.881Z,17.70
2018-07-02T01:39:56.074Z,17.70
2018-07-02T01:42:24.279Z,17.60
2018-07-02T01:44:52.487Z,17.60
2018-07-02T01:47:20.884Z,17.60
2018-07-02T01:49:49.053Z,17.60
2018-07-02T01:52:17.251Z,17.50
2018-07-02T01:54:45.497Z,17.50
2018-07-02T01:57:13.998Z,17.50
2018-07-02T02:02:10.364Z,17.40
2018-07-02T02:04:38.554Z,17.40
2018-07-02T02:07:07.026Z,17.40
2018-07-02T02:09:35.265Z,17.30
2018-07-02T02:12:03.494Z,17.30
2018-07-02T02:14:31.683Z,17.30
2018-07-02T02:16:59.989Z,17.30
2018-07-02T02:19:28.223Z,17.20
2018-07-02T02:21:56.484Z,17.20
2018-07-02T02:24:24.747Z,17.20
2018-07-02T02:26:53.000Z,17.20
2018-07-02T02:29:21.232Z,17.20
2018-07-02T02:31:49.477Z,17.10
2018-07-02T02:34:17.732Z,17.10
2018-07-02T02:36:45.941Z,17.10
2018-07-02T02:39:14.116Z,17.10
2018-07-02T02:41:42.375Z,17.00
2018-07-02T02:44:10.576Z,17.00
2018-07-02T02:46:38.834Z,17.00
2018-07-02T02:49:07.115Z,16.90
2018-07-02T02:51:35.370Z,16.90
2018-07-02T02:56:31.850Z,16.90
2018-07-02T02:59:00.116Z,16.90
2018-07-02T03:01:28.503Z,16.80
2018-07-02T03:03:56.750Z,16.80
2018-07-02T03:06:24.964Z,16.80
2018-07-02T03:08:53.140Z,16.80
2018-07-02T03:11:21.324Z,16.80
2018-07-02T03:13:49.589Z,16.80
2018-07-02T03:16:17.849Z,16.80
2018-07-02T03:18:46.063Z,16.70
2018-07-02T03:21:14.937Z,16.70
2018-07-02T03:23:43.342Z,16.70
2018-07-02T03:26:12.227Z,16.70
2018-07-02T03:28:40.485Z,16.70
2018-07-02T03:31:08.895Z,16.70
2018-07-02T03:33:37.075Z,16.70
2018-07-02T03:36:05.282Z,16.70
2018-07-02T03:38:33.448Z,16.70
2018-07-02T03:41:01.647Z,16.70
2018-07-02T03:43:29.859Z,16.60
2018-07-02T03:45:58.091Z,16.60
2018-07-02T03:48:26.315Z,16.60
2018-07-02T03:53:22.708Z,16.60
2018-07-02T03:55:51.075Z,16.50
2018-07-02T04:00:47.431Z,16.60
2018-07-02T04:03:15.633Z,16.50
2018-07-02T04:05:43.908Z,16.60
2018-07-02T04:08:12.115Z,16.60
2018-07-02T04:10:40.327Z,16.60
2018-07-02T04:13:08.591Z,16.60
2018-07-02T04:15:36.740Z,16.60
2018-07-02T04:18:05.078Z,16.60
2018-07-02T04:20:33.340Z,16.60
2018-07-02T04:23:01.610Z,16.70
2018-07-02T04:25:29.949Z,16.70
2018-07-02T04:27:58.154Z,16.80
2018-07-02T04:30:26.431Z,16.80
2018-07-02T04:32:55.518Z,16.80
2018-07-02T04:35:23.712Z,16.90
2018-07-02T04:37:51.979Z,16.90
2018-07-02T04:40:20.213Z,17.00
2018-07-02T04:42:48.404Z,17.10
2018-07-02T04:45:16.899Z,17.10
2018-07-02T04:47:46.972Z,17.20
2018-07-02T04:50:13.482Z,17.20
2018-07-02T04:52:41.683Z,17.30
2018-07-02T04:55:09.870Z,17.30
2018-07-02T04:57:38.149Z,17.30
2018-07-02T05:00:06.376Z,17.40
2018-07-02T05:05:02.939Z,17.50
2018-07-02T05:09:59.348Z,17.60
2018-07-02T05:12:27.710Z,17.60
2018-07-02T05:14:55.786Z,17.70
2018-07-02T05:17:24.018Z,17.70
2018-07-02T05:19:52.316Z,17.70
2018-07-02T05:22:20.498Z,17.80
2018-07-02T05:27:16.662Z,17.90
2018-07-02T05:29:44.851Z,18.00
2018-07-02T05:32:13.031Z,18.00
2018-07-02T05:34:41.264Z,18.10
2018-07-02T05:37:09.712Z,18.10
2018-07-02T05:39:37.883Z,18.20
2018-07-02T05:42:06.078Z,18.20
2018-07-02T05:44:34.275Z,18.20
2018-07-02T05:47:02.550Z,18.30
2018-07-02T05:49:30.747Z,18.30
2018-07-02T05:51:58.952Z,18.40
2018-07-02T05:54:27.166Z,18.40
2018-07-02T05:56:55.376Z,18.50
2018-07-02T05:59:23.644Z,18.50
2018-07-02T06:01:51.834Z,18.60
2018-07-02T06:04:20.023Z,18.60
2018-07-02T06:06:48.233Z,18.70
2018-07-02T06:09:16.477Z,18.70
2018-07-02T06:11:44.686Z,18.80
2018-07-02T06:14:12.932Z,18.80
2018-07-02T06:16:41.128Z,18.80
2018-07-02T06:21:37.474Z,18.90
2018-07-02T06:24:05.687Z,19.00
2018-07-02T06:26:33.889Z,19.00
2018-07-02T06:29:02.076Z,19.00
2018-07-02T06:31:30.336Z,19.00
2018-07-02T06:36:26.490Z,19.20
2018-07-02T06:38:54.656Z,19.20
2018-07-02T06:41:23.034Z,19.30
2018-07-02T06:46:19.482Z,19.40
2018-07-02T06:48:47.745Z,19.40
2018-07-02T06:51:16.019Z,19.50
2018-07-02T06:53:44.203Z,19.60
2018-07-02T06:56:12.403Z,19.70
2018-07-02T06:58:40.798Z,19.80
2018-07-02T07:01:08.973Z,19.80
2018-07-02T07:06:05.482Z,19.90
2018-07-02T07:08:33.770Z,20.00
2018-07-02T07:11:01.912Z,20.10
2018-07-02T07:13:30.164Z,20.20
2018-07-02T07:15:58.347Z,20.30
2018-07-02T07:18:26.545Z,20.30
2018-07-02T07:20:54.736Z,20.40
2018-07-02T07:23:23.351Z,20.50
2018-07-02T07:25:51.601Z,20.50
2018-07-02T07:28:19.740Z,20.60
2018-07-02T07:30:47.921Z,20.70
2018-07-02T07:33:16.129Z,20.70
2018-07-02T07:38:12.259Z,20.80
2018-07-02T07:40:40.462Z,20.90
2018-07-02T07:43:08.698Z,20.90
2018-07-02T07:45:36.911Z,21.00
2018-07-02T07:48:05.503Z,21.10
2018-07-02T07:50:33.870Z,21.30
2018-07-02T07:53:02.149Z,21.30
2018-07-02T07:55:30.338Z,21.50
2018-07-02T07:57:58.602Z,21.60
2018-07-02T08:02:54.837Z,21.70
2018-07-02T08:05:23.036Z,21.80
2018-07-02T08:07:51.352Z,21.90
2018-07-02T08:10:19.619Z,22.00
2018-07-02T08:12:47.818Z,22.10
2018-07-02T08:15:16.100Z,22.20
2018-07-02T08:17:44.640Z,22.30
2018-07-02T08:20:12.902Z,22.40
2018-07-02T08:22:41.086Z,22.50
2018-07-02T08:25:09.328Z,22.60
2018-07-02T08:27:37.583Z,22.80
2018-07-02T08:30:06.562Z,23.00
2018-07-02T08:32:34.899Z,23.00
2018-07-02T08:35:03.119Z,23.00
2018-07-02T08:37:31.302Z,23.10
2018-07-02T08:39:59.498Z,23.20
2018-07-02T08:42:27.772Z,23.30
2018-07-02T08:44:56.042Z,23.40
2018-07-02T08:47:24.283Z,23.50
2018-07-02T08:49:52.741Z,23.70
2018-07-02T08:52:21.017Z,23.70
2018-07-02T08:54:49.273Z,23.70
2018-07-02T08:57:17.440Z,23.70
2018-07-02T08:59:45.610Z,23.90
2018-07-02T09:02:13.803Z,24.00
2018-07-02T09:04:41.994Z,24.00
2018-07-02T09:07:10.343Z,24.10
2018-07-02T09:09:38.544Z,24.30
2018-07-02T09:12:06.983Z,24.40
2018-07-02T09:14:35.237Z,24.60
2018-07-02T09:19:31.390Z,24.70
2018-07-02T09:21:59.567Z,24.80
2018-07-02T09:24:27.832Z,24.80
2018-07-02T09:26:56.015Z,24.90
2018-07-02T09:29:24.194Z,25.00
2018-07-02T09:31:52.371Z,25.00
2018-07-02T09:36:48.685Z,25.10
2018-07-02T09:39:16.887Z,25.10
2018-07-02T09:41:45.079Z,25.10
2018-07-02T09:44:13.322Z,25.10
2018-07-02T09:46:41.569Z,25.30
2018-07-02T09:49:09.760Z,25.50
2018-07-02T09:51:37.946Z,25.60
2018-07-02T09:54:06.197Z,25.60
2018-07-02T09:56:34.409Z,25.80
2018-07-02T09:59:02.911Z,25.80
2018-07-02T10:01:31.103Z,25.70
2018-07-02T10:06:27.380Z,26.00
2018-07-02T10:08:55.479Z,26.10
2018-07-02T10:11:23.687Z,26.20
2018-07-02T10:13:51.929Z,26.40
2018-07-02T10:18:48.177Z,26.80
2018-07-02T10:21:16.373Z,27.00
2018-07-02T10:23:44.605Z,27.30
2018-07-02T10:26:12.759Z,27.60
2018-07-02T10:28:41.026Z,27.80
2018-07-02T10:31:09.290Z,28.10
2018-07-02T10:33:37.395Z,28.60
2018-07-02T10:36:05.591Z,29.30
2018-07-02T10:38:33.853Z,29.80
2018-07-02T10:41:02.088Z,30.20
2018-07-02T10:43:30.303Z,30.60
2018-07-02T10:45:58.502Z,31.20
2018-07-02T10:48:26.735Z,31.50
2018-07-02T10:53:22.923Z,31.90
2018-07-02T10:55:51.140Z,32.40
2018-07-02T10:58:19.335Z,33.10
2018-07-02T11:03:15.666Z,34.40
2018-07-02T11:05:43.857Z,34.60
2018-07-02T11:08:12.367Z,34.80
2018-07-02T11:10:40.608Z,34.80
2018-07-02T11:13:11.723Z,35.00
2018-07-02T11:15:41.283Z,35.40
2018-07-02T11:18:09.581Z,35.10
2018-07-02T11:20:38.784Z,34.70
2018-07-02T11:25:35.875Z,34.50
2018-07-02T11:28:04.071Z,34.80
2018-07-02T11:30:32.420Z,34.70
2018-07-02T11:33:00.653Z,34.90
2018-07-02T11:35:28.826Z,35.00
2018-07-02T11:37:57.093Z,35.00
2018-07-02T11:40:25.374Z,35.30
2018-07-02T11:42:53.554Z,35.50
2018-07-02T11:45:21.793Z,35.50
2018-07-02T11:47:49.987Z,35.70
2018-07-02T11:50:18.241Z,35.70
2018-07-02T11:52:46.439Z,35.70
2018-07-02T11:57:42.810Z,36.20
2018-07-02T12:00:11.004Z,36.00
2018-07-02T12:02:39.887Z,35.70
2018-07-02T12:05:08.161Z,35.90
2018-07-02T12:07:36.441Z,36.00
2018-07-02T12:10:04.643Z,36.70
2018-07-02T12:12:33.325Z,37.50
2018-07-02T12:15:01.501Z,37.90
2018-07-02T12:17:29.872Z,37.60
2018-07-02T12:19:58.071Z,37.60
2018-07-02T12:22:26.363Z,37.70
2018-07-02T12:24:54.601Z,38.00
2018-07-02T12:27:22.837Z,38.30
2018-07-02T12:29:51.089Z,38.40
2018-07-02T12:32:19.271Z,38.00
2018-07-02T12:34:47.467Z,38.00
2018-07-02T12:37:15.735Z,38.20
2018-07-02T12:39:43.977Z,38.40
2018-07-02T12:42:12.188Z,38.20
2018-07-02T12:44:40.415Z,38.20
2018-07-02T12:47:08.785Z,37.70
2018-07-02T12:49:36.989Z,37.60
2018-07-02T12:52:05.236Z,37.60
2018-07-02T12:54:33.490Z,37.90
2018-07-02T12:57:01.742Z,38.60
2018-07-02T13:01:57.941Z,38.90
2018-07-02T13:04:26.119Z,39.20
2018-07-02T13:06:54.814Z,39.70
2018-07-02T13:09:23.011Z,39.70
2018-07-02T13:11:51.267Z,39.20
2018-07-02T13:14:19.509Z,38.90
2018-07-02T13:16:47.807Z,38.60
2018-07-02T13:19:15.920Z,38.90
2018-07-02T13:21:44.148Z,39.10
2018-07-02T13:26:40.359Z,39.50
2018-07-02T13:29:08.748Z,39.60
2018-07-02T13:31:36.778Z,39.70
2018-07-02T13:34:05.020Z,39.20
2018-07-02T13:36:33.340Z,38.80
2018-07-02T13:39:01.511Z,38.40
2018-07-02T13:41:29.776Z,37.70
2018-07-02T13:43:57.989Z,37.50
2018-07-02T13:46:26.186Z,37.80
2018-07-02T13:48:54.436Z,37.80
2018-07-02T13:51:22.615Z,37.80
2018-07-02T13:53:50.846Z,37.40
2018-07-02T13:56:19.106Z,37.70
2018-07-02T13:58:47.371Z,37.90
2018-07-02T14:01:15.555Z,37.80
2018-07-02T14:03:44.037Z,38.00
2018-07-02T14:06:12.284Z,38.50
2018-07-02T14:08:40.520Z,38.60
2018-07-02T14:11:08.731Z,38.00
2018-07-02T14:13:36.915Z,37.30
2018-07-02T14:16:05.232Z,37.10
2018-07-02T14:18:33.477Z,37.00
2018-07-02T14:21:01.689Z,36.50
2018-07-02T14:23:29.890Z,36.10
2018-07-02T14:25:58.080Z,35.80
2018-07-02T14:28:26.324Z,35.20
2018-07-02T14:30:54.512Z,34.60
2018-07-02T14:33:22.767Z,34.10
2018-07-02T14:35:50.939Z,33.90
2018-07-02T14:40:47.176Z,33.20
2018-07-02T14:45:43.417Z,32.60
2018-07-02T14:48:11.630Z,32.40
2018-07-02T14:50:39.868Z,32.00
2018-07-02T14:53:08.126Z,31.70
2018-07-02T14:55:36.334Z,31.50
2018-07-02T14:58:04.825Z,31.50
2018-07-02T15:00:33.117Z,31.40
2018-07-02T15:03:01.364Z,31.30
2018-07-02T15:05:29.628Z,31.20
2018-07-02T15:07:57.880Z,31.20
2018-07-02T15:12:56.073Z,31.00
2018-07-02T15:15:24.312Z,30.90
2018-07-02T15:17:52.519Z,31.00
2018-07-02T15:20:20.780Z,31.00
2018-07-02T15:22:49.034Z,31.00
2018-07-02T15:25:17.309Z,31.10
2018-07-02T15:27:45.983Z,31.20
2018-07-02T15:30:14.711Z,31.20
2018-07-02T15:32:43.379Z,31.30
2018-07-02T15:35:11.637Z,31.50
2018-07-02T15:37:39.916Z,31.50
2018-07-02T15:40:08.126Z,31.50
2018-07-02T15:42:36.410Z,31.50
2018-07-02T15:45:05.135Z,31.30
2018-07-02T15:47:34.305Z,31.30
2018-07-02T15:50:02.593Z,31.20
2018-07-02T15:52:30.859Z,31.10
2018-07-02T15:54:59.129Z,31.00
2018-07-02T15:57:27.373Z,30.80
2018-07-02T15:59:55.679Z,30.70
2018-07-02T16:02:23.957Z,30.70
2018-07-02T16:04:52.198Z,30.70
2018-07-02T16:07:20.465Z,30.70
2018-07-02T16:09:48.827Z,30.60
2018-07-02T16:12:17.057Z,30.60
2018-07-02T16:14:45.257Z,30.70
2018-07-02T16:17:13.602Z,30.70
2018-07-02T16:19:41.819Z,30.70
2018-07-02T16:22:10.127Z,30.70
2018-07-02T16:24:38.312Z,30.70
2018-07-02T16:27:06.579Z,30.60
2018-07-02T16:29:34.809Z,30.60
2018-07-02T16:32:02.960Z,30.60
2018-07-02T16:34:31.220Z,30.60
2018-07-02T16:36:59.513Z,30.60
2018-07-02T16:39:27.776Z,30.60
2018-07-02T16:41:55.968Z,30.50
2018-07-02T16:44:24.237Z,30.50
2018-07-02T16:46:52.490Z,30.50
2018-07-02T16:49:20.742Z,30.50
2018-07-02T16:51:48.943Z,30.40
2018-07-02T16:56:45.116Z,30.10
2018-07-02T17:01:41.371Z,30.00
2018-07-02T17:04:09.543Z,29.90
2018-07-02T17:06:37.815Z,29.90
2018-07-02T17:09:11.182Z,29.80
2018-07-02T17:11:39.915Z,29.80
2018-07-02T17:14:08.410Z,29.80
2018-07-02T17:19:04.676Z,29.90
2018-07-02T17:21:32.913Z,29.90
2018-07-02T17:24:01.400Z,29.90
2018-07-02T17:26:29.653Z,29.80
2018-07-02T17:28:57.867Z,29.80
2018-07-02T17:31:26.117Z,29.80
2018-07-02T17:33:54.357Z,29.80
2018-07-02T17:36:22.630Z,29.80
2018-07-02T17:38:50.830Z,29.60
2018-07-02T17:41:19.089Z,29.50
2018-07-02T17:43:47.353Z,29.50
2018-07-02T17:46:15.546Z,29.40
2018-07-02T17:51:11.871Z,29.30
2018-07-02T17:53:40.138Z,29.30
2018-07-02T17:56:08.332Z,29.30
2018-07-02T17:58:36.519Z,29.30
2018-07-02T18:01:04.784Z,29.30
2018-07-02T18:03:32.975Z,29.30
2018-07-02T18:06:01.213Z,29.30
2018-07-02T18:08:30.508Z,29.20
2018-07-02T18:10:58.931Z,29.20
2018-07-02T18:13:27.151Z,29.10
2018-07-02T18:15:55.408Z,29.00
2018-07-02T18:18:23.627Z,28.90
2018-07-02T18:20:51.916Z,28.90
2018-07-02T18:23:20.323Z,28.80
2018-07-02T18:25:48.563Z,28.80
2018-07-02T18:30:44.928Z,28.80
2018-07-02T18:33:13.175Z,28.70
2018-07-02T18:35:41.435Z,28.70
2018-07-02T18:38:09.790Z,28.60
2018-07-02T18:40:37.883Z,28.50
2018-07-02T18:43:06.194Z,28.40
2018-07-02T18:45:34.382Z,28.30
2018-07-02T18:48:02.671Z,28.10
2018-07-02T18:50:30.863Z,28.00
2018-07-02T18:52:59.123Z,27.90
2018-07-02T18:55:27.344Z,27.80
2018-07-02T18:57:55.601Z,27.70
2018-07-02T19:00:23.803Z,27.60
2018-07-02T19:02:52.026Z,27.50
2018-07-02T19:05:20.320Z,27.40
2018-07-02T19:07:48.573Z,27.30
2018-07-02T19:10:16.834Z,27.20
2018-07-02T19:12:45.017Z,27.10
2018-07-02T19:15:13.268Z,27.00
2018-07-02T19:20:09.516Z,26.90
2018-07-02T19:22:37.697Z,26.80
2018-07-02T19:27:34.480Z,26.60
2018-07-02T19:30:02.795Z,26.50
2018-07-02T19:32:31.050Z,26.40
2018-07-02T19:34:59.263Z,26.10
2018-07-02T19:37:27.524Z,25.90
2018-07-02T19:39:55.748Z,25.80
2018-07-02T19:42:24.004Z,25.60
2018-07-02T19:44:52.209Z,25.50
2018-07-02T19:47:20.541Z,25.40
2018-07-02T19:49:48.687Z,25.30
2018-07-02T19:52:16.950Z,25.20
2018-07-02T19:54:45.135Z,25.10
2018-07-02T19:57:13.534Z,25.00
2018-07-02T19:59:41.780Z,24.90
2018-07-02T20:02:10.122Z,24.80
2018-07-02T20:04:38.358Z,24.60
2018-07-02T20:07:06.656Z,24.50
2018-07-02T20:09:34.763Z,24.40
2018-07-02T20:12:03.020Z,24.30
2018-07-02T20:14:31.273Z,24.20
2018-07-02T20:16:59.633Z,24.10
2018-07-02T20:19:27.931Z,24.00
2018-07-02T20:21:56.184Z,23.90
2018-07-02T20:24:24.363Z,23.80
2018-07-02T20:26:52.892Z,23.70
2018-07-02T20:29:21.090Z,23.70
2018-07-02T20:31:49.531Z,23.60
2018-07-02T20:34:17.787Z,23.50
2018-07-02T20:36:46.051Z,23.40
2018-07-02T20:39:14.325Z,23.30
2018-07-02T20:41:42.536Z,23.20
2018-07-02T20:44:10.739Z,23.20
2018-07-02T20:46:38.939Z,23.10
2018-07-02T20:51:35.458Z,23.00
2018-07-02T20:54:03.765Z,22.90
2018-07-02T20:56:32.042Z,22.90
2018-07-02T20:59:00.328Z,22.80
2018-07-02T21:01:28.540Z,22.70
2018-07-02T21:06:24.909Z,22.60
2018-07-02T21:08:53.186Z,22.50
2018-07-02T21:11:21.391Z,22.50
2018-07-02T21:13:49.608Z,22.40
2018-07-02T21:16:17.816Z,22.40
2018-07-02T21:18:46.057Z,22.30
2018-07-02T21:21:14.289Z,22.30
2018-07-02T21:23:42.447Z,22.20
2018-07-02T21:26:10.685Z,22.10
2018-07-02T21:28:38.962Z,22.00
2018-07-02T21:31:07.695Z,22.00
2018-07-02T21:33:35.862Z,21.90
2018-07-02T21:36:04.083Z,21.90
2018-07-02T21:38:32.352Z,21.80
2018-07-02T21:41:00.627Z,21.80
2018-07-02T21:43:28.833Z,21.70
2018-07-02T21:45:57.203Z,21.70
2018-07-02T21:48:25.418Z,21.70
2018-07-02T21:50:53.644Z,21.60
2018-07-02T21:53:21.838Z,21.60
2018-07-02T21:55:50.098Z,21.60
2018-07-02T21:58:18.367Z,21.60
2018-07-02T22:00:46.596Z,21.60
2018-07-02T22:03:14.858Z,21.60
2018-07-02T22:05:43.120Z,21.50
2018-07-02T22:10:39.898Z,21.50
2018-07-02T22:13:08.148Z,21.40
2018-07-02T22:15:36.437Z,21.40
2018-07-02T22:18:04.920Z,21.30
2018-07-02T22:20:33.305Z,21.30
2018-07-02T22:23:01.853Z,21.30
2018-07-02T22:25:30.083Z,21.20
2018-07-02T22:27:58.285Z,21.20
2018-07-02T22:30:26.567Z,21.10
2018-07-02T22:32:54.796Z,21.00
2018-07-02T22:35:23.046Z,21.00
2018-07-02T22:37:51.323Z,20.90
2018-07-02T22:40:19.588Z,20.90
2018-07-02T22:42:47.768Z,20.80
2018-07-02T22:45:16.023Z,20.80
2018-07-02T22:50:12.164Z,20.70
2018-07-02T22:52:40.354Z,20.60
2018-07-02T22:55:08.678Z,20.70
2018-07-02T22:57:36.928Z,20.70
2018-07-02T23:00:06.239Z,20.70
2018-07-02T23:02:34.481Z,20.70
2018-07-02T23:05:02.704Z,20.70
2018-07-02T23:07:30.964Z,20.60
2018-07-02T23:12:27.347Z,20.60
2018-07-02T23:14:55.601Z,20.60
2018-07-02T23:17:23.846Z,20.50
2018-07-02T23:19:52.037Z,20.50
2018-07-02T23:22:20.282Z,20.50
2018-07-02T23:24:48.540Z,20.50
2018-07-02T23:27:16.769Z,20.50
2018-07-02T23:29:45.010Z,20.50
2018-07-02T23:32:13.250Z,20.50
2018-07-02T23:34:41.498Z,20.40
2018-07-02T23:37:09.918Z,20.40
2018-07-02T23:39:38.165Z,20.40
2018-07-02T23:42:06.418Z,20.30
2018-07-02T23:44:34.744Z,20.30
2018-07-02T23:47:03.062Z,20.30
2018-07-02T23:51:59.448Z,20.20
2018-07-02T23:54:27.702Z,20.10
2018-07-02T23:56:56.029Z,20.10
2018-07-02T23:59:24.273Z,20.00
